createdAt,value
2018-02-04T00:00:32.343Z,1.04
2018-02-04T00:01:37.130Z,1.09
2018-02-04T00:02:41.942Z,1.04
2018-02-04T00:03:46.864Z,1.08
2018-02-04T00:04:51.581Z,1.00
2018-02-04T00:05:56.597Z,1.01
2018-02-04T00:07:01.338Z,1.00
2018-02-04T00:08:06.145Z,1.05
2018-02-04T00:09:10.976Z,0.98
2018-02-04T00:10:15.738Z,0.92
2018-02-04T00:11:20.577Z,0.91
2018-02-04T00:12:25.650Z,0.89
2018-02-04T00:13:30.444Z,0.85
2018-02-04T00:14:35.280Z,0.89
2018-02-04T00:15:40.088Z,0.83
2018-02-04T00:16:44.943Z,0.91
2018-02-04T00:17:49.716Z,0.83
2018-02-04T00:18:54.810Z,0.81
2018-02-04T00:19:59.603Z,0.77
2018-02-04T00:21:04.407Z,0.78
2018-02-04T00:22:09.463Z,0.82
2018-02-04T00:23:14.256Z,0.87
2018-02-04T00:24:19.063Z,0.92
2018-02-04T00:25:24.223Z,0.86
2018-02-04T00:26:29.037Z,0.87
2018-02-04T00:27:33.931Z,0.97
2018-02-04T00:28:38.838Z,0.90
2018-02-04T00:29:43.614Z,0.93
2018-02-04T00:30:48.502Z,0.95
2018-02-04T00:31:53.708Z,0.80
2018-02-04T00:32:58.495Z,0.78
2018-02-04T00:34:03.412Z,0.90
2018-02-04T00:35:08.279Z,0.94
2018-02-04T00:36:13.095Z,0.97
2018-02-04T00:37:17.890Z,1.05
2018-02-04T00:38:23.110Z,1.12
2018-02-04T00:39:27.829Z,1.12
2018-02-04T00:40:32.525Z,1.13
2018-02-04T00:41:37.527Z,1.04
2018-02-04T00:42:42.200Z,0.99
2018-02-04T00:43:46.775Z,0.97
2018-02-04T00:44:51.355Z,0.97
2018-02-04T00:45:55.996Z,0.99
2018-02-04T00:47:00.600Z,1.01
2018-02-04T00:48:05.177Z,1.04
2018-02-04T00:49:09.734Z,1.09
2018-02-04T00:50:14.565Z,1.14
2018-02-04T00:51:19.200Z,1.14
2018-02-04T00:52:23.846Z,1.12
2018-02-04T00:53:28.563Z,1.08
2018-02-04T00:54:33.976Z,1.11
2018-02-04T00:55:38.521Z,1.14
2018-02-04T00:56:43.363Z,1.08
2018-02-04T00:57:47.905Z,1.03
2018-02-04T00:58:52.508Z,0.98
2018-02-04T00:59:57.094Z,0.99
2018-02-04T01:01:01.799Z,1.00
2018-02-04T01:02:06.485Z,1.03
2018-02-04T01:03:11.453Z,1.09
2018-02-04T01:04:16.221Z,1.08
2018-02-04T01:05:20.958Z,1.03
2018-02-04T01:06:25.635Z,0.99
2018-02-04T01:07:30.371Z,1.01
2018-02-04T01:08:35.076Z,1.06
2018-02-04T01:09:40.056Z,1.12
2018-02-04T01:10:44.852Z,1.08
2018-02-04T01:11:49.620Z,1.08
2018-02-04T01:12:54.366Z,1.07
2018-02-04T01:13:59.051Z,1.11
2018-02-04T01:15:04.331Z,1.19
2018-02-04T01:16:09.339Z,1.19
2018-02-04T01:17:14.423Z,1.23
2018-02-04T01:18:19.115Z,1.30
2018-02-04T01:19:23.807Z,1.30
2018-02-04T01:20:28.535Z,1.29
2018-02-04T01:21:33.239Z,1.36
2018-02-04T01:22:38.299Z,1.37
2018-02-04T01:23:43.116Z,1.36
2018-02-04T01:24:47.925Z,1.37
2018-02-04T01:25:52.698Z,1.37
2018-02-04T01:26:57.460Z,1.39
2018-02-04T01:28:02.257Z,1.41
2018-02-04T01:29:07.328Z,1.41
2018-02-04T01:30:12.117Z,1.38
2018-02-04T01:31:16.925Z,1.38
2018-02-04T01:32:21.703Z,1.42
2018-02-04T01:33:26.497Z,1.48
2018-02-04T01:34:31.267Z,1.49
2018-02-04T01:35:36.320Z,1.48
2018-02-04T01:36:41.110Z,1.50
2018-02-04T01:37:45.890Z,1.46
2018-02-04T01:38:50.644Z,1.49
2018-02-04T01:39:55.445Z,1.52
2018-02-04T01:41:00.261Z,1.54
2018-02-04T01:42:05.236Z,1.55
2018-02-04T01:43:09.964Z,1.56
2018-02-04T01:44:14.700Z,1.54
2018-02-04T01:45:19.457Z,1.51
2018-02-04T01:46:24.154Z,1.53
2018-02-04T01:47:28.976Z,1.58
2018-02-04T01:48:34.041Z,1.60
2018-02-04T01:49:38.835Z,1.63
2018-02-04T01:50:43.733Z,1.62
2018-02-04T01:51:48.633Z,1.65
2018-02-04T01:52:53.354Z,1.66
2018-02-04T01:53:58.117Z,1.66
2018-02-04T01:55:02.865Z,1.60
2018-02-04T01:56:07.631Z,1.60
2018-02-04T01:57:12.411Z,1.59
2018-02-04T01:58:17.202Z,1.57
2018-02-04T01:59:21.843Z,1.50
2018-02-04T02:00:26.776Z,1.53
2018-02-04T02:01:31.428Z,1.53
2018-02-04T02:02:36.060Z,1.49
2018-02-04T02:03:40.679Z,1.51
2018-02-04T02:04:45.455Z,1.51
2018-02-04T02:05:50.259Z,1.53
2018-02-04T02:06:55.235Z,1.44
2018-02-04T02:08:00.038Z,1.30
2018-02-04T02:09:04.875Z,1.26
2018-02-04T02:10:09.599Z,1.30
2018-02-04T02:11:14.275Z,1.29
2018-02-04T02:12:18.986Z,1.27
2018-02-04T02:13:24.030Z,1.27
2018-02-04T02:14:28.808Z,1.22
2018-02-04T02:15:33.503Z,1.19
2018-02-04T02:16:38.199Z,1.12
2018-02-04T02:17:42.906Z,1.06
2018-02-04T02:18:47.650Z,0.99
2018-02-04T02:19:52.654Z,1.00
2018-02-04T02:20:57.390Z,1.06
2018-02-04T02:22:02.835Z,1.03
2018-02-04T02:23:07.446Z,0.90
2018-02-04T02:24:13.570Z,0.86
2018-02-04T02:25:18.172Z,0.92
2018-02-04T02:26:23.064Z,0.94
2018-02-04T02:27:27.591Z,0.95
2018-02-04T02:28:32.122Z,0.99
2018-02-04T02:29:36.755Z,0.96
2018-02-04T02:30:41.359Z,0.94
2018-02-04T02:31:46.071Z,0.87
2018-02-04T02:32:50.920Z,0.92
2018-02-04T02:33:55.553Z,0.94
2018-02-04T02:35:00.094Z,1.00
2018-02-04T02:36:04.672Z,0.93
2018-02-04T02:37:09.374Z,0.88
2018-02-04T02:38:14.135Z,0.82
2018-02-04T02:39:19.112Z,0.85
2018-02-04T02:40:23.921Z,0.86
2018-02-04T02:41:28.736Z,0.87
2018-02-04T02:42:33.477Z,0.94
2018-02-04T02:43:38.287Z,0.94
2018-02-04T02:44:43.113Z,0.94
2018-02-04T02:45:48.271Z,0.99
2018-02-04T02:46:53.044Z,0.95
2018-02-04T02:47:57.867Z,0.94
2018-02-04T02:49:02.626Z,0.87
2018-02-04T02:50:07.440Z,0.79
2018-02-04T02:51:12.263Z,0.73
2018-02-04T02:52:17.458Z,0.64
2018-02-04T02:53:22.239Z,0.72
2018-02-04T02:54:27.062Z,0.72
2018-02-04T02:55:31.861Z,0.73
2018-02-04T02:56:36.676Z,0.79
2018-02-04T02:57:41.495Z,0.70
2018-02-04T02:58:46.560Z,0.64
2018-02-04T02:59:51.684Z,0.70
2018-02-04T03:00:56.391Z,0.71
2018-02-04T03:02:01.203Z,0.68
2018-02-04T03:03:05.943Z,0.65
2018-02-04T03:04:10.761Z,0.53
2018-02-04T03:05:15.931Z,0.50
2018-02-04T03:06:20.721Z,0.43
2018-02-04T03:07:25.522Z,0.32
2018-02-04T03:08:30.400Z,0.34
2018-02-04T03:09:35.195Z,0.38
2018-02-04T03:10:39.988Z,0.38
2018-02-04T03:11:45.445Z,0.37
2018-02-04T03:12:50.307Z,0.36
2018-02-04T03:13:55.109Z,0.27
2018-02-04T03:14:59.869Z,0.19
2018-02-04T03:16:04.540Z,0.21
2018-02-04T03:17:09.572Z,0.19
2018-02-04T03:18:14.922Z,0.11
2018-02-04T03:19:19.663Z,0.12
2018-02-04T03:20:24.300Z,0.07
2018-02-04T03:21:28.984Z,0.03
2018-02-04T03:22:33.600Z,0.11
2018-02-04T03:23:38.238Z,0.06
2018-02-04T03:24:43.128Z,0.03
2018-02-04T03:25:47.960Z,0.10
2018-02-04T03:26:52.771Z,0.04
2018-02-04T03:27:57.569Z,0.00
2018-02-04T03:29:02.338Z,-0.10
2018-02-04T03:30:07.355Z,-0.10
2018-02-04T03:31:12.448Z,-0.12
2018-02-04T03:32:17.279Z,-0.18
2018-02-04T03:33:22.089Z,-0.13
2018-02-04T03:34:26.721Z,-0.07
2018-02-04T03:35:31.368Z,-0.10
2018-02-04T03:36:36.092Z,-0.15
2018-02-04T03:37:41.010Z,-0.09
2018-02-04T03:38:45.666Z,-0.17
2018-02-04T03:39:50.325Z,-0.25
2018-02-04T03:40:54.901Z,-0.24
2018-02-04T03:41:59.416Z,-0.19
2018-02-04T03:43:04.164Z,-0.23
2018-02-04T03:44:09.166Z,-0.24
2018-02-04T03:45:13.872Z,-0.20
2018-02-04T03:46:18.604Z,-0.16
2018-02-04T03:47:23.563Z,-0.10
2018-02-04T03:48:28.352Z,-0.15
2018-02-04T03:49:33.066Z,-0.25
2018-02-04T03:50:38.082Z,-0.29
2018-02-04T03:51:42.861Z,-0.28
2018-02-04T03:52:47.635Z,-0.22
2018-02-04T03:53:53.037Z,-0.20
2018-02-04T03:54:57.834Z,-0.21
2018-02-04T03:56:02.635Z,-0.22
2018-02-04T03:57:07.690Z,-0.25
2018-02-04T03:58:12.666Z,-0.25
2018-02-04T03:59:17.487Z,-0.26
2018-02-04T04:00:22.724Z,-0.29
2018-02-04T04:01:27.524Z,-0.19
2018-02-04T04:02:32.228Z,-0.20
2018-02-04T04:03:37.411Z,-0.21
2018-02-04T04:04:42.159Z,-0.14
2018-02-04T04:05:46.873Z,-0.11
2018-02-04T04:06:51.735Z,-0.06
2018-02-04T04:07:56.428Z,-0.05
2018-02-04T04:09:01.292Z,-0.06
2018-02-04T04:10:06.518Z,-0.14
2018-02-04T04:11:11.315Z,-0.17
2018-02-04T04:12:15.963Z,-0.25
2018-02-04T04:13:20.623Z,-0.29
2018-02-04T04:14:25.353Z,-0.25
2018-02-04T04:15:30.220Z,-0.20
2018-02-04T04:16:35.037Z,-0.25
2018-02-04T04:17:39.845Z,-0.25
2018-02-04T04:18:44.565Z,-0.33
2018-02-04T04:19:49.256Z,-0.26
2018-02-04T04:20:53.974Z,-0.21
2018-02-04T04:21:58.675Z,-0.12
2018-02-04T04:23:03.711Z,-0.12
2018-02-04T04:24:08.419Z,-0.11
2018-02-04T04:25:13.127Z,-0.03
2018-02-04T04:26:17.845Z,-0.01
2018-02-04T04:27:22.576Z,0.03
2018-02-04T04:28:27.392Z,-0.06
2018-02-04T04:29:32.502Z,-0.13
2018-02-04T04:30:37.258Z,-0.18
2018-02-04T04:31:42.091Z,-0.13
2018-02-04T04:32:46.926Z,-0.06
2018-02-04T04:33:51.931Z,-0.10
2018-02-04T04:34:56.738Z,-0.08
2018-02-04T04:36:01.714Z,-0.23
2018-02-04T04:37:06.349Z,-0.25
2018-02-04T04:38:11.034Z,-0.24
2018-02-04T04:39:15.643Z,-0.23
2018-02-04T04:40:20.277Z,-0.23
2018-02-04T04:41:24.944Z,-0.29
2018-02-04T04:42:30.105Z,-0.49
2018-02-04T04:43:34.767Z,-0.47
2018-02-04T04:44:40.149Z,-0.42
2018-02-04T04:45:44.815Z,-0.49
2018-02-04T04:46:49.651Z,-0.48
2018-02-04T04:47:54.849Z,-0.39
2018-02-04T04:48:59.770Z,-0.44
2018-02-04T04:50:04.417Z,-0.51
2018-02-04T04:51:09.124Z,-0.47
2018-02-04T04:52:14.011Z,-0.43
2018-02-04T04:53:18.680Z,-0.40
2018-02-04T04:55:53.993Z,-0.23
2018-02-04T04:56:58.699Z,-0.20
2018-02-04T04:58:03.337Z,-0.14
2018-02-04T04:59:08.245Z,-0.14
2018-02-04T05:00:13.068Z,-0.16
2018-02-04T05:01:18.214Z,-0.11
2018-02-04T05:02:23.030Z,-0.14
2018-02-04T05:03:27.924Z,-0.16
2018-02-04T05:04:32.701Z,-0.18
2018-02-04T05:05:37.612Z,-0.18
2018-02-04T05:06:42.386Z,-0.15
2018-02-04T05:07:47.479Z,-0.32
2018-02-04T05:08:52.279Z,-0.38
2018-02-04T05:09:58.518Z,-0.40
2018-02-04T05:11:03.337Z,-0.37
2018-02-04T05:12:08.108Z,-0.35
2018-02-04T05:13:12.796Z,-0.38
2018-02-04T05:14:17.866Z,-0.36
2018-02-04T05:15:23.075Z,-0.48
2018-02-04T05:16:27.903Z,-0.44
2018-02-04T05:17:32.775Z,-0.41
2018-02-04T05:18:37.540Z,-0.42
2018-02-04T05:19:42.348Z,-0.38
2018-02-04T05:20:47.407Z,-0.33
2018-02-04T05:21:52.138Z,-0.27
2018-02-04T05:22:56.886Z,-0.19
2018-02-04T05:24:01.595Z,-0.18
2018-02-04T05:25:06.276Z,-0.23
2018-02-04T05:26:11.132Z,-0.24
2018-02-04T05:27:16.187Z,-0.23
2018-02-04T05:28:20.938Z,-0.25
2018-02-04T05:29:25.623Z,-0.27
2018-02-04T05:30:30.429Z,-0.35
2018-02-04T05:31:35.136Z,-0.38
2018-02-04T05:32:39.874Z,-0.33
2018-02-04T05:33:44.846Z,-0.27
2018-02-04T05:34:50.318Z,-0.31
2018-02-04T05:35:54.779Z,-0.27
2018-02-04T05:36:59.488Z,-0.24
2018-02-04T05:38:04.207Z,-0.25
2018-02-04T05:39:08.957Z,-0.21
2018-02-04T05:40:14.047Z,-0.37
2018-02-04T05:41:18.735Z,-0.33
2018-02-04T05:42:23.381Z,-0.32
2018-02-04T05:43:28.044Z,-0.42
2018-02-04T05:44:32.646Z,-0.59
2018-02-04T05:45:37.280Z,-0.62
2018-02-04T05:46:42.360Z,-0.66
2018-02-04T05:47:46.982Z,-0.62
2018-02-04T05:48:51.814Z,-0.66
2018-02-04T05:49:56.628Z,-0.58
2018-02-04T05:51:01.398Z,-0.62
2018-02-04T05:52:06.193Z,-0.67
2018-02-04T05:53:11.092Z,-0.69
2018-02-04T05:54:16.144Z,-0.68
2018-02-04T05:55:20.914Z,-0.57
2018-02-04T05:56:25.827Z,-0.50
2018-02-04T05:57:30.586Z,-0.53
2018-02-04T05:58:35.201Z,-0.59
2018-02-04T05:59:40.200Z,-0.61
2018-02-04T06:00:44.676Z,-0.54
2018-02-04T06:01:49.325Z,-0.65
2018-02-04T06:02:53.882Z,-0.55
2018-02-04T06:03:58.505Z,-0.52
2018-02-04T06:05:03.089Z,-0.60
2018-02-04T06:06:07.939Z,-0.64
2018-02-04T06:07:12.846Z,-0.60
2018-02-04T06:08:17.408Z,-0.61
2018-02-04T06:09:22.040Z,-0.65
2018-02-04T06:10:26.672Z,-0.61
2018-02-04T06:11:31.512Z,-0.58
2018-02-04T06:20:11.694Z,-0.41
2018-02-04T06:21:16.874Z,-0.49
2018-02-04T06:22:22.011Z,-0.49
2018-02-04T06:23:27.015Z,-0.56
2018-02-04T06:24:32.035Z,-0.56
2018-02-04T06:25:36.705Z,-0.54
2018-02-04T06:26:41.434Z,-0.51
2018-02-04T06:27:46.198Z,-0.46
2018-02-04T06:28:51.165Z,-0.47
2018-02-04T06:29:55.852Z,-0.48
2018-02-04T06:31:00.651Z,-0.48
2018-02-04T06:32:05.374Z,-0.65
2018-02-04T06:33:10.170Z,-0.78
2018-02-04T06:34:14.979Z,-0.79
2018-02-04T06:35:20.104Z,-0.79
2018-02-04T06:36:24.930Z,-0.70
2018-02-04T06:37:29.705Z,-0.58
2018-02-04T06:38:34.500Z,-0.55
2018-02-04T06:39:39.270Z,-0.53
2018-02-04T06:40:44.007Z,-0.57
2018-02-04T06:41:49.114Z,-0.59
2018-02-04T06:42:53.884Z,-0.57
2018-02-04T06:43:58.666Z,-0.62
2018-02-04T06:45:03.462Z,-0.68
2018-02-04T06:46:08.212Z,-0.63
2018-02-04T06:47:12.992Z,-0.61
2018-02-04T06:48:18.051Z,-0.70
2018-02-04T06:49:22.780Z,-0.74
2018-02-04T06:50:27.533Z,-0.73
2018-02-04T06:51:32.262Z,-0.72
2018-02-04T06:52:36.933Z,-0.77
2018-02-04T06:53:41.622Z,-0.80
2018-02-04T06:54:46.572Z,-0.80
2018-02-04T06:55:51.218Z,-0.88
2018-02-04T06:56:56.202Z,-0.86
2018-02-04T06:58:01.008Z,-0.82
2018-02-04T06:59:05.732Z,-0.82
2018-02-04T07:00:10.527Z,-0.80
2018-02-04T07:01:15.586Z,-0.84
2018-02-04T07:02:21.325Z,-0.86
2018-02-04T07:03:26.077Z,-0.87
2018-02-04T07:04:30.955Z,-0.83
2018-02-04T07:05:35.697Z,-0.80
2018-02-04T07:06:40.469Z,-0.82
2018-02-04T07:07:45.535Z,-0.82
2018-02-04T07:08:50.319Z,-0.86
2018-02-04T07:09:55.075Z,-0.86
2018-02-04T07:10:59.832Z,-0.82
2018-02-04T07:12:04.669Z,-0.77
2018-02-04T07:13:09.438Z,-0.86
2018-02-04T07:14:14.495Z,-0.93
2018-02-04T07:15:19.240Z,-0.95
2018-02-04T07:16:24.092Z,-0.99
2018-02-04T07:17:28.877Z,-0.96
2018-02-04T07:18:33.679Z,-0.99
2018-02-04T07:19:38.397Z,-1.01
2018-02-04T07:20:43.427Z,-1.01
2018-02-04T07:21:48.291Z,-1.08
2018-02-04T07:22:53.026Z,-1.12
2018-02-04T07:23:57.814Z,-1.16
2018-02-04T07:25:02.596Z,-1.18
2018-02-04T07:26:07.584Z,-1.13
2018-02-04T07:27:12.519Z,-1.06
2018-02-04T07:28:17.120Z,-1.02
2018-02-04T07:29:22.392Z,-1.05
2018-02-04T07:30:27.002Z,-1.09
2018-02-04T07:31:32.091Z,-1.18
2018-02-04T07:32:36.764Z,-1.16
2018-02-04T07:33:41.807Z,-1.12
2018-02-04T07:34:46.478Z,-1.11
2018-02-04T07:35:51.199Z,-1.06
2018-02-04T07:36:55.888Z,-1.05
2018-02-04T07:38:00.650Z,-1.06
2018-02-04T07:39:05.602Z,-0.98
2018-02-04T07:40:10.674Z,-1.03
2018-02-04T07:41:15.367Z,-1.16
2018-02-04T07:42:20.039Z,-1.15
2018-02-04T07:43:24.800Z,-1.18
2018-02-04T07:44:29.531Z,-1.09
2018-02-04T07:45:34.315Z,-1.06
2018-02-04T07:46:39.370Z,-1.06
2018-02-04T07:47:44.180Z,-0.99
2018-02-04T07:48:49.006Z,-0.99
2018-02-04T07:49:53.778Z,-0.98
2018-02-04T07:50:58.527Z,-0.98
2018-02-04T07:52:03.266Z,-0.88
2018-02-04T07:53:08.375Z,-0.83
2018-02-04T07:54:13.265Z,-1.02
2018-02-04T07:55:18.031Z,-1.13
2018-02-04T07:56:22.855Z,-1.15
2018-02-04T07:57:27.571Z,-1.25
2018-02-04T07:58:32.403Z,-1.27
2018-02-04T07:59:37.407Z,-1.20
2018-02-04T08:00:42.161Z,-1.13
2018-02-04T08:01:46.846Z,-1.09
2018-02-04T08:02:51.563Z,-1.00
2018-02-04T08:03:56.236Z,-1.05
2018-02-04T08:05:00.939Z,-1.24
2018-02-04T08:06:06.044Z,-1.22
2018-02-04T08:07:10.770Z,-1.16
2018-02-04T08:08:15.514Z,-1.07
2018-02-04T08:09:20.269Z,-1.00
2018-02-04T08:10:25.056Z,-0.97
2018-02-04T08:11:29.747Z,-0.92
2018-02-04T08:12:34.756Z,-0.78
2018-02-04T08:13:39.477Z,-0.71
2018-02-04T08:14:44.206Z,-0.71
2018-02-04T08:15:48.908Z,-0.77
2018-02-04T08:16:53.738Z,-0.86
2018-02-04T08:17:58.500Z,-0.91
2018-02-04T08:19:03.524Z,-1.06
2018-02-04T08:20:08.247Z,-1.03
2018-02-04T08:21:13.044Z,-0.90
2018-02-04T08:22:17.792Z,-0.90
2018-02-04T08:23:22.554Z,-0.85
2018-02-04T08:24:27.284Z,-0.92
2018-02-04T08:25:32.543Z,-1.05
2018-02-04T08:26:37.328Z,-1.02
2018-02-04T08:27:42.076Z,-0.96
2018-02-04T08:28:46.831Z,-0.94
2018-02-04T08:29:51.555Z,-1.06
2018-02-04T08:30:56.291Z,-1.02
2018-02-04T08:32:01.364Z,-1.06
2018-02-04T08:33:06.123Z,-1.06
2018-02-04T08:34:10.893Z,-1.04
2018-02-04T08:35:15.564Z,-0.97
2018-02-04T08:36:20.309Z,-0.92
2018-02-04T08:37:25.096Z,-0.82
2018-02-04T08:38:30.304Z,-1.04
2018-02-04T08:39:35.031Z,-1.00
2018-02-04T08:40:39.771Z,-0.96
2018-02-04T08:41:44.671Z,-0.89
2018-02-04T08:42:49.386Z,-0.82
2018-02-04T08:43:54.143Z,-0.86
2018-02-04T08:44:59.261Z,-0.85
2018-02-04T08:46:04.071Z,-0.96
2018-02-04T08:47:08.896Z,-1.03
2018-02-04T08:48:13.747Z,-1.02
2018-02-04T08:49:18.567Z,-1.07
2018-02-04T08:50:23.473Z,-0.98
2018-02-04T08:51:28.599Z,-0.82
2018-02-04T08:52:33.506Z,-0.75
2018-02-04T08:53:38.606Z,-0.84
2018-02-04T08:54:43.611Z,-0.90
2018-02-04T08:55:48.727Z,-0.87
2018-02-04T08:56:54.541Z,-0.92
2018-02-04T08:58:00.045Z,-0.96
2018-02-04T08:59:04.898Z,-0.89
2018-02-04T09:00:09.790Z,-0.91
2018-02-04T09:01:15.297Z,-1.05
2018-02-04T09:02:20.106Z,-1.13
2018-02-04T09:03:25.013Z,-1.19
2018-02-04T09:04:30.428Z,-1.17
2018-02-04T09:05:35.335Z,-1.09
2018-02-04T09:06:40.195Z,-1.06
2018-02-04T09:07:44.953Z,-1.10
2018-02-04T09:08:49.775Z,-1.08
2018-02-04T09:09:54.569Z,-1.13
2018-02-04T09:10:59.895Z,-1.19
2018-02-04T09:12:04.670Z,-1.13
2018-02-04T09:13:09.496Z,-1.11
2018-02-04T09:14:14.256Z,-1.10
2018-02-04T09:15:19.006Z,-1.09
2018-02-04T09:16:23.922Z,-1.00
2018-02-04T09:17:29.070Z,-1.00
2018-02-04T09:18:33.799Z,-0.97
2018-02-04T09:19:38.553Z,-0.93
2018-02-04T09:20:44.494Z,-0.93
2018-02-04T09:21:49.352Z,-0.93
2018-02-04T09:22:54.058Z,-0.96
2018-02-04T09:23:59.347Z,-0.96
2018-02-04T09:25:04.095Z,-0.97
2018-02-04T09:26:08.795Z,-1.06
2018-02-04T09:27:13.626Z,-0.96
2018-02-04T09:28:18.444Z,-0.88
2018-02-04T09:29:23.367Z,-0.91
2018-02-04T09:30:28.671Z,-0.95
2018-02-04T09:31:33.519Z,-0.90
2018-02-04T09:32:38.354Z,-0.84
2018-02-04T09:33:43.302Z,-0.81
2018-02-04T09:34:48.099Z,-0.89
2018-02-04T09:35:53.023Z,-0.78
2018-02-04T09:36:57.854Z,-0.88
2018-02-04T09:38:02.728Z,-0.96
2018-02-04T09:39:08.839Z,-1.06
2018-02-04T09:40:13.688Z,-1.14
2018-02-04T09:41:18.563Z,-1.07
2018-02-04T09:42:23.848Z,-1.02
2018-02-04T09:43:28.820Z,-1.05
2018-02-04T09:44:33.669Z,-0.98
2018-02-04T09:45:38.504Z,-1.06
2018-02-04T09:46:43.350Z,-1.08
2018-02-04T09:47:48.255Z,-1.18
2018-02-04T09:48:53.152Z,-1.05
2018-02-04T09:49:58.041Z,-0.99
2018-02-04T09:51:02.936Z,-0.97
2018-02-04T09:52:07.890Z,-1.05
2018-02-04T09:53:12.811Z,-1.11
2018-02-04T09:54:17.645Z,-1.13
2018-02-04T09:55:23.131Z,-1.01
2018-02-04T09:56:27.943Z,-1.05
2018-02-04T09:57:32.796Z,-1.03
2018-02-04T09:58:38.590Z,-0.96
2018-02-04T09:59:43.356Z,-0.99
2018-02-04T10:00:48.233Z,-1.00
2018-02-04T10:01:53.491Z,-0.97
2018-02-04T10:02:58.390Z,-0.90
2018-02-04T10:04:04.596Z,-0.85
2018-02-04T10:05:09.596Z,-0.96
2018-02-04T10:06:14.427Z,-0.98
2018-02-04T10:07:19.322Z,-0.95
2018-02-04T10:08:24.675Z,-0.90
2018-02-04T10:09:29.547Z,-0.78
2018-02-04T10:10:34.604Z,-0.70
2018-02-04T10:11:39.465Z,-0.71
2018-02-04T10:12:45.730Z,-0.69
2018-02-04T10:13:51.729Z,-0.64
2018-02-04T10:15:04.686Z,-0.66
2018-02-04T10:16:15.793Z,-0.69
2018-02-04T10:17:20.873Z,-0.56
2018-02-04T10:18:25.819Z,-0.42
2018-02-04T10:19:31.729Z,-0.40
2018-02-04T10:20:36.660Z,-0.45
2018-02-04T10:21:43.241Z,-0.47
2018-02-04T10:22:48.801Z,-0.42
2018-02-04T10:25:33.165Z,-0.41
2018-02-04T10:26:40.032Z,-0.49
2018-02-04T10:27:46.870Z,-0.41
2018-02-04T10:28:53.726Z,-0.33
2018-02-04T10:30:00.510Z,-0.16
2018-02-04T10:31:07.357Z,-0.18
2018-02-04T10:32:13.829Z,0.05
2018-02-04T10:33:20.566Z,0.14
2018-02-04T10:34:26.418Z,0.32
2018-02-04T10:35:31.717Z,0.52
2018-02-04T10:36:38.451Z,0.44
2018-02-04T10:37:43.442Z,0.33
2018-02-04T10:38:48.642Z,0.38
2018-02-04T10:39:53.596Z,0.34
2018-02-04T10:40:59.851Z,0.39
2018-02-04T10:42:09.110Z,0.79
2018-02-04T10:43:16.559Z,1.55
2018-02-04T10:44:22.057Z,2.12
2018-02-04T10:45:29.672Z,3.06
2018-02-04T10:46:36.904Z,3.57
2018-02-04T10:47:45.621Z,4.20
2018-02-04T10:48:53.898Z,4.59
2018-02-04T10:50:00.772Z,4.65
2018-02-04T10:51:11.774Z,5.01
2018-02-04T10:52:19.625Z,4.18
2018-02-04T10:53:27.352Z,4.09
2018-02-04T10:54:34.857Z,4.78
2018-02-04T10:55:43.774Z,4.54
2018-02-04T10:56:51.081Z,3.05
2018-02-04T10:57:58.751Z,2.36
2018-02-04T10:59:06.400Z,1.57
2018-02-04T11:00:17.971Z,1.62
2018-02-04T11:01:24.503Z,1.75
2018-02-04T11:02:31.066Z,1.44
2018-02-04T11:03:40.032Z,1.31
2018-02-04T11:04:48.449Z,1.24
2018-02-04T11:05:55.997Z,1.15
2018-02-04T11:07:03.765Z,0.95
2018-02-04T11:08:11.416Z,0.67
2018-02-04T11:09:20.176Z,0.71
2018-02-04T11:10:28.091Z,0.85
2018-02-04T11:11:33.564Z,0.87
2018-02-04T11:12:39.971Z,0.69
2018-02-04T11:13:47.935Z,0.67
2018-02-04T11:14:54.343Z,0.29
2018-02-04T11:16:01.855Z,0.49
2018-02-04T11:17:08.034Z,0.76
2018-02-04T11:18:17.766Z,0.97
2018-02-04T11:19:25.899Z,1.03
2018-02-04T11:20:32.222Z,0.95
2018-02-04T11:21:38.926Z,0.99
2018-02-04T11:22:46.443Z,1.12
2018-02-04T11:23:54.409Z,1.01
2018-02-04T11:25:02.167Z,1.04
2018-02-04T11:26:11.259Z,0.84
2018-02-04T11:27:18.899Z,0.77
2018-02-04T11:28:26.726Z,0.74
2018-02-04T11:29:35.960Z,0.75
2018-02-04T11:30:42.396Z,0.91
2018-02-04T11:31:50.300Z,1.03
2018-02-04T11:32:58.175Z,0.69
2018-02-04T11:34:06.760Z,0.66
2018-02-04T11:35:15.315Z,0.88
2018-02-04T11:36:24.198Z,0.97
2018-02-04T11:37:31.915Z,0.76
2018-02-04T11:38:39.885Z,0.62
2018-02-04T11:39:46.546Z,0.40
2018-02-04T11:40:54.217Z,0.40
2018-02-04T11:42:02.173Z,0.47
2018-02-04T11:43:11.097Z,0.61
2018-02-04T11:44:20.010Z,0.75
2018-02-04T11:45:27.660Z,0.65
2018-02-04T11:46:35.516Z,0.74
2018-02-04T11:47:42.951Z,0.70
2018-02-04T11:48:49.483Z,0.58
2018-02-04T11:49:57.156Z,0.56
2018-02-04T11:51:05.132Z,0.51
2018-02-04T11:52:13.130Z,0.48
2018-02-04T11:53:23.118Z,0.50
2018-02-04T11:54:31.089Z,0.65
2018-02-04T11:55:39.375Z,1.23
2018-02-04T11:56:47.229Z,1.64
2018-02-04T11:57:53.935Z,1.87
2018-02-04T11:59:01.420Z,1.75
2018-02-04T12:00:09.122Z,1.62
2018-02-04T12:01:18.118Z,1.60
2018-02-04T12:02:27.272Z,1.34
2018-02-04T12:03:35.203Z,0.80
2018-02-04T12:04:42.350Z,0.70
2018-02-04T12:05:49.733Z,0.60
2018-02-04T12:06:55.625Z,0.78
2018-02-04T12:08:02.817Z,0.67
2018-02-04T12:09:10.031Z,0.72
2018-02-04T12:10:17.540Z,0.60
2018-02-04T12:11:25.193Z,0.59
2018-02-04T12:12:32.688Z,0.50
2018-02-04T12:13:40.421Z,0.61
2018-02-04T12:14:48.442Z,0.57
2018-02-04T12:15:56.262Z,0.63
2018-02-04T12:17:05.254Z,0.47
2018-02-04T12:18:15.063Z,0.24
2018-02-04T12:19:23.452Z,0.14
2018-02-04T12:20:32.283Z,0.25
2018-02-04T12:21:43.251Z,0.31
2018-02-04T12:22:52.341Z,0.34
2018-02-04T12:24:03.422Z,0.36
2018-02-04T12:25:10.301Z,0.41
2018-02-04T12:26:21.603Z,0.44
2018-02-04T12:27:32.671Z,0.51
2018-02-04T12:28:43.354Z,0.63
2018-02-04T12:29:52.312Z,0.92
2018-02-04T12:31:00.716Z,0.89
2018-02-04T12:32:09.974Z,0.95
2018-02-04T12:33:18.215Z,0.83
2018-02-04T12:34:29.276Z,1.11
2018-02-04T12:35:39.419Z,1.16
2018-02-04T12:36:47.390Z,1.18
2018-02-04T12:37:56.063Z,1.22
2018-02-04T12:39:04.114Z,1.07
2018-02-04T12:40:11.004Z,1.08
2018-02-04T12:41:19.003Z,1.21
2018-02-04T12:42:27.111Z,1.23
2018-02-04T12:43:34.554Z,1.06
2018-02-04T12:44:42.619Z,0.95
2018-02-04T12:45:50.643Z,0.99
2018-02-04T12:46:58.293Z,0.76
2018-02-04T12:48:06.520Z,0.78
2018-02-04T12:49:14.254Z,0.80
2018-02-04T12:50:21.592Z,0.67
2018-02-04T12:51:29.089Z,0.56
2018-02-04T12:52:36.434Z,0.47
2018-02-04T12:53:45.795Z,0.37
2018-02-04T12:54:54.651Z,0.51
2018-02-04T12:56:04.552Z,0.54
2018-02-04T12:57:13.381Z,0.39
2018-02-04T12:58:20.456Z,0.37
2018-02-04T12:59:28.654Z,0.31
2018-02-04T13:00:39.043Z,0.29
2018-02-04T13:01:47.909Z,0.18
2018-02-04T13:02:55.407Z,0.23
2018-02-04T13:04:03.201Z,0.10
2018-02-04T13:05:11.029Z,0.10
2018-02-04T13:06:19.079Z,0.19
2018-02-04T13:07:25.063Z,0.30
2018-02-04T13:08:32.318Z,0.24
2018-02-04T13:09:40.102Z,0.32
2018-02-04T13:10:48.032Z,0.14
2018-02-04T13:11:56.883Z,0.14
2018-02-04T13:13:05.418Z,0.25
2018-02-04T13:14:15.538Z,0.34
2018-02-04T13:15:23.087Z,0.28
2018-02-04T13:16:31.185Z,0.27
2018-02-04T13:17:39.598Z,0.30
2018-02-04T13:18:48.872Z,0.37
2018-02-04T13:19:59.104Z,0.47
2018-02-04T13:21:06.872Z,0.36
2018-02-04T13:22:15.637Z,0.36
2018-02-04T13:23:24.719Z,0.56
2018-02-04T13:24:31.534Z,0.77
2018-02-04T13:25:41.069Z,0.67
2018-02-04T13:26:49.471Z,0.65
2018-02-04T13:27:57.258Z,0.68
2018-02-04T13:29:05.060Z,0.75
2018-02-04T13:30:13.627Z,0.80
2018-02-04T13:31:25.827Z,0.91
2018-02-04T13:32:32.210Z,0.64
2018-02-04T13:33:40.135Z,0.48
2018-02-04T13:34:48.172Z,0.56
2018-02-04T13:35:56.965Z,0.57
2018-02-04T13:37:04.530Z,0.73
2018-02-04T13:38:12.643Z,0.64
2018-02-04T13:39:22.861Z,0.55
2018-02-04T13:40:32.193Z,0.65
2018-02-04T13:41:39.442Z,0.69
2018-02-04T13:42:47.467Z,0.55
2018-02-04T13:43:57.232Z,0.48
2018-02-04T13:45:05.180Z,0.31
2018-02-04T13:46:12.739Z,0.31
2018-02-04T13:47:20.657Z,0.22
2018-02-04T13:48:29.614Z,-0.11
2018-02-04T13:49:36.835Z,-0.03
2018-02-04T13:50:45.331Z,0.12
2018-02-04T13:51:52.903Z,0.17
2018-02-04T13:53:00.749Z,0.03
2018-02-04T13:54:08.320Z,0.03
2018-02-04T13:55:16.515Z,-0.10
2018-02-04T13:56:24.400Z,-0.13
2018-02-04T13:57:33.756Z,-0.20
2018-02-04T13:58:42.436Z,0.00
2018-02-04T13:59:50.141Z,-0.10
2018-02-04T14:00:59.260Z,-0.20
2018-02-04T14:02:08.054Z,-0.08
2018-02-04T14:03:17.157Z,0.03
2018-02-04T14:04:26.493Z,0.03
2018-02-04T14:05:34.287Z,0.00
2018-02-04T14:06:43.960Z,0.01
2018-02-04T14:07:49.691Z,0.07
2018-02-04T14:08:58.919Z,0.07
2018-02-04T14:10:08.185Z,0.06
2018-02-04T14:11:16.470Z,-0.11
2018-02-04T14:12:24.469Z,-0.30
2018-02-04T14:13:33.291Z,-0.24
2018-02-04T14:14:42.499Z,-0.31
2018-02-04T14:15:49.830Z,-0.31
2018-02-04T14:16:57.136Z,-0.20
2018-02-04T14:18:04.474Z,-0.07
2018-02-04T14:19:12.473Z,-0.01
2018-02-04T14:20:20.664Z,-0.01
2018-02-04T14:21:32.209Z,0.00
2018-02-04T14:22:40.436Z,0.07
2018-02-04T14:23:49.483Z,0.02
2018-02-04T14:24:56.236Z,0.09
2018-02-04T14:26:05.498Z,0.10
2018-02-04T14:27:15.201Z,0.07
2018-02-04T14:28:23.284Z,-0.07
2018-02-04T14:29:32.200Z,-0.11
2018-02-04T14:30:40.376Z,-0.09
2018-02-04T14:31:48.369Z,-0.23